Time;durP1;ratioP1;P1;durP2;ratioP2;P2;SDS_P1;SDS_P2;PMS_P1;PMS_P2;Temp;Humidity;BMP_temperature;BMP_pressure;BME280_temperature;BME280_humidity;BME280_pressure;Samples;Min_cycle;Max_cycle;Signal;HPM_P1;HPM_P2
2023/05/03 00:00:58;;;;;;;5.80;2.80;;;;;;;8.88;56.29;102108.84;4971208;28;20456;-73
2023/05/03 00:03:29;;;;;;;5.10;2.67;;;;;;;8.79;56.35;102109.81;4978806;28;20216;-72
2023/05/03 00:06:08;;;;;;;5.38;2.97;;;;;;;8.78;56.74;102113.53;4967449;28;20194;-73
2023/05/03 00:08:38;;;;;;;9.23;2.40;;;;;;;8.72;56.61;102109.59;4976948;28;20730;-71
2023/05/03 00:11:07;;;;;;;7.15;2.78;;;;;;;8.70;56.68;102105.38;4979786;28;20663;-72
2023/05/03 00:13:36;;;;;;;3.72;2.90;;;;;;;8.63;56.93;102107.03;4973870;28;20228;-75
2023/05/03 00:16:08;;;;;;;4.82;2.55;;;;;;;8.59;56.84;102109.19;4976212;28;20212;-72
2023/05/03 00:18:37;;;;;;;3.63;3.33;;;;;;;8.54;57.29;102110.69;4976598;28;20232;-73
2023/05/03 00:21:06;;;;;;;5.78;3.80;;;;;;;8.44;57.53;102110.78;4965495;28;20292;-74
2023/05/03 00:23:35;;;;;;;4.38;2.85;;;;;;;8.41;57.78;102115.66;4976852;28;20224;-72
2023/05/03 00:26:06;;;;;;;9.25;2.88;;;;;;;8.35;58.22;102105.50;4972822;28;20188;-70
2023/05/03 00:28:36;;;;;;;3.10;2.70;;;;;;;8.27;58.41;102109.81;4972196;28;20239;-71
2023/05/03 00:31:10;;;;;;;5.00;2.88;;;;;;;8.27;58.53;102115.22;4970581;28;20208;-72
2023/05/03 00:33:40;;;;;;;5.00;2.97;;;;;;;8.19;58.73;102111.59;4970597;28;20237;-74
2023/05/03 00:36:10;;;;;;;4.03;3.30;;;;;;;8.13;59.43;102113.06;4977477;28;20236;-72
2023/05/03 00:38:41;;;;;;;9.90;3.28;;;;;;;8.10;59.56;102110.69;4977293;28;20723;-73
2023/05/03 00:41:12;;;;;;;4.22;2.45;;;;;;;8.04;59.72;102114.00;4972233;28;20196;-73
2023/05/03 00:43:42;;;;;;;3.42;2.88;;;;;;;8.04;60.02;102111.31;4978744;28;20262;-73
2023/05/03 00:46:12;;;;;;;3.65;2.80;;;;;;;8.06;60.10;102116.53;4975368;28;20193;-73
2023/05/03 00:48:48;;;;;;;5.65;3.30;;;;;;;7.96;60.53;102121.19;4979122;28;20227;-73
2023/05/03 00:51:19;;;;;;;9.27;3.60;;;;;;;7.92;60.52;102117.94;4981524;28;20206;-74
2023/05/03 00:53:48;;;;;;;8.45;2.83;;;;;;;7.84;61.14;102112.50;4979658;28;20220;-73
2023/05/03 00:56:21;;;;;;;7.47;3.42;;;;;;;7.83;61.53;102111.66;4987606;28;20210;-74
2023/05/03 00:58:52;;;;;;;7.82;3.00;;;;;;;7.77;61.47;102109.56;4980083;28;20200;-74
2023/05/03 01:01:23;;;;;;;4.10;3.05;;;;;;;7.76;62.42;102115.09;4981233;28;20561;-74
2023/05/03 01:03:52;;;;;;;6.05;3.20;;;;;;;7.64;62.35;102114.50;4972366;28;20223;-75
2023/05/03 01:06:32;;;;;;;5.88;2.95;;;;;;;7.63;62.22;102114.66;4977169;28;20204;-72
2023/05/03 01:09:06;;;;;;;6.30;3.30;;;;;;;7.59;62.38;102118.66;4975318;28;20210;-74
2023/05/03 01:11:47;;;;;;;7.88;3.15;;;;;;;7.47;63.14;102119.84;4978001;28;20188;-73
2023/05/03 01:14:27;;;;;;;4.47;3.75;;;;;;;7.43;63.08;102117.47;4973371;28;20476;-73
2023/05/03 01:17:05;;;;;;;8.65;3.22;;;;;;;7.38;63.37;102117.09;4972656;28;20208;-73
2023/05/03 01:19:38;;;;;;;6.45;2.92;;;;;;;7.29;63.86;102109.91;4974531;28;20202;-73
2023/05/03 01:22:17;;;;;;;8.23;4.35;;;;;;;7.35;63.83;102119.25;4978666;28;20200;-71
2023/05/03 01:24:51;;;;;;;4.25;2.97;;;;;;;7.17;64.22;102113.81;4970314;28;20263;-73
2023/05/03 01:27:22;;;;;;;6.28;3.80;;;;;;;7.22;64.34;102122.28;4973940;28;20626;-73
2023/05/03 01:29:51;;;;;;;8.20;4.10;;;;;;;7.20;64.66;102124.28;4972033;28;20224;-74
2023/05/03 01:32:30;;;;;;;4.82;2.58;;;;;;;7.11;64.91;102125.19;4975811;28;20204;-74
2023/05/03 01:35:08;;;;;;;4.25;2.78;;;;;;;7.05;64.76;102131.16;4970997;28;20212;-73
2023/05/03 01:37:40;;;;;;;7.40;2.72;;;;;;;6.97;65.25;102128.38;4975414;28;20223;-75
2023/05/03 01:40:11;;;;;;;3.83;2.72;;;;;;;7.02;65.25;102131.44;4969053;28;20545;-73
2023/05/03 01:42:42;;;;;;;7.10;3.55;;;;;;;6.94;65.65;102128.66;4974181;28;20223;-72
2023/05/03 01:45:12;;;;;;;3.65;3.08;;;;;;;6.86;65.96;102125.88;4970000;28;20564;-74
2023/05/03 01:47:41;;;;;;;6.68;3.42;;;;;;;6.87;65.84;102132.97;4968663;28;20196;-76
2023/05/03 01:50:12;;;;;;;7.32;3.03;;;;;;;6.80;66.22;102126.47;4971558;28;20194;-73
2023/05/03 01:52:41;;;;;;;5.30;3.70;;;;;;;6.81;66.11;102129.00;4968397;28;20198;-72
2023/05/03 01:55:10;;;;;;;5.05;3.20;;;;;;;6.85;66.18;102129.56;4968032;28;20561;-73
2023/05/03 01:57:41;;;;;;;7.32;3.47;;;;;;;6.75;66.76;102129.59;4972291;28;20252;-72
2023/05/03 02:00:11;;;;;;;7.80;2.88;;;;;;;6.67;66.88;102120.56;4968444;28;20202;-73
2023/05/03 02:02:40;;;;;;;7.53;3.30;;;;;;;6.61;67.15;102121.16;4972578;28;20234;-72
2023/05/03 02:05:11;;;;;;;8.85;2.70;;;;;;;6.55;67.18;102128.81;4970653;28;20237;-73
2023/05/03 02:07:40;;;;;;;5.47;3.75;;;;;;;6.59;67.37;102123.13;4973108;28;20195;-73
2023/05/03 02:10:13;;;;;;;4.05;3.17;;;;;;;6.55;67.69;102127.97;4972244;28;20192;-74
2023/05/03 02:12:44;;;;;;;6.53;2.53;;;;;;;6.37;68.15;102135.94;4971596;28;20210;-73
2023/05/03 02:15:14;;;;;;;3.60;2.92;;;;;;;6.31;68.35;102141.03;4972688;28;20226;-75
2023/05/03 02:17:46;;;;;;;3.83;3.05;;;;;;;6.31;68.54;102136.50;4972129;28;20227;-73
2023/05/03 02:20:15;;;;;;;7.65;3.05;;;;;;;6.31;68.68;102131.13;4972625;28;20217;-74
2023/05/03 02:22:44;;;;;;;9.82;3.88;;;;;;;6.27;68.51;102140.47;4971904;28;20651;-71
2023/05/03 02:25:13;;;;;;;5.25;3.53;;;;;;;6.27;68.89;102139.63;4977779;28;20216;-72
2023/05/03 02:27:43;;;;;;;6.63;3.95;;;;;;;6.22;69.25;102148.13;4977013;28;20278;-72
2023/05/03 02:30:13;;;;;;;7.30;3.50;;;;;;;6.14;69.45;102150.69;4970286;28;20211;-73
2023/05/03 02:32:44;;;;;;;8.65;2.97;;;;;;;6.11;70.02;102153.66;4968906;28;20304;-70
2023/05/03 02:35:13;;;;;;;6.13;3.55;;;;;;;6.03;70.14;102148.16;4966265;28;20226;-73
2023/05/03 02:37:43;;;;;;;4.18;3.33;;;;;;;6.07;70.30;102160.31;4976492;28;20346;-73
2023/05/03 02:40:14;;;;;;;6.25;3.65;;;;;;;5.93;70.71;102156.22;4964217;28;20203;-73
2023/05/03 02:42:46;;;;;;;5.18;2.90;;;;;;;5.89;71.01;102162.00;4968360;28;20712;-71
2023/05/03 02:45:23;;;;;;;6.65;2.70;;;;;;;5.90;71.00;102159.19;4967779;28;20723;-72
2023/05/03 02:47:52;;;;;;;3.25;2.22;;;;;;;5.73;72.10;102150.94;4970229;28;20687;-72
2023/05/03 02:50:22;;;;;;;9.68;2.75;;;;;;;5.80;71.71;102152.06;4968941;28;20665;-73
2023/05/03 02:52:51;;;;;;;7.75;5.05;;;;;;;5.74;71.78;102155.31;4976223;28;20221;-74
2023/05/03 02:55:21;;;;;;;5.72;3.63;;;;;;;5.77;71.63;102163.09;4969037;28;20226;-72
2023/05/03 02:57:52;;;;;;;7.68;4.13;;;;;;;5.79;71.14;102156.59;4973641;28;20214;-74
2023/05/03 03:00:22;;;;;;;8.88;4.43;;;;;;;5.67;71.87;102163.06;4973354;28;20683;-72
2023/05/03 03:02:51;;;;;;;4.93;3.28;;;;;;;5.69;71.66;102164.66;4973854;28;20194;-72
2023/05/03 03:05:21;;;;;;;6.68;3.58;;;;;;;5.64;71.63;102164.22;4973568;28;20230;-72
2023/05/03 03:07:52;;;;;;;11.93;3.50;;;;;;;5.62;71.58;102160.81;4971855;28;20201;-71
2023/05/03 03:10:21;;;;;;;8.77;3.72;;;;;;;5.64;71.32;102171.44;4973002;28;20197;-72
2023/05/03 03:12:51;;;;;;;5.13;3.28;;;;;;;5.56;71.74;102166.75;4968396;28;20691;-73
2023/05/03 03:15:30;;;;;;;7.65;3.50;;;;;;;5.55;72.28;102170.44;4974151;28;20252;-72
2023/05/03 03:17:59;;;;;;;8.25;4.45;;;;;;;5.45;72.75;102169.56;4978022;28;20214;-73
2023/05/03 03:20:29;;;;;;;10.73;3.95;;;;;;;5.42;72.60;102169.81;4975169;28;20202;-75
2023/05/03 03:22:58;;;;;;;12.05;5.00;;;;;;;5.35;73.21;102174.06;4968327;28;20614;-72
2023/05/03 03:25:27;;;;;;;5.93;3.45;;;;;;;5.36;72.91;102174.91;4976675;28;20297;-73
2023/05/03 03:28:00;;;;;;;9.82;3.83;;;;;;;5.33;73.32;102177.84;4962165;28;20221;-72
2023/05/03 03:30:30;;;;;;;6.20;3.75;;;;;;;5.32;74.18;102179.72;4966984;28;20198;-72
2023/05/03 03:33:10;;;;;;;9.77;4.20;;;;;;;5.36;73.29;102181.13;4973653;28;20301;-71
2023/05/03 03:35:41;;;;;;;6.82;4.07;;;;;;;5.27;73.49;102181.94;4971145;28;20201;-73
2023/05/03 03:38:12;;;;;;;11.23;3.88;;;;;;;5.28;73.35;102180.94;4971304;28;20226;-73
2023/05/03 03:40:49;;;;;;;5.35;3.90;;;;;;;5.37;73.46;102188.19;4973601;28;20197;-73
2023/05/03 03:43:20;;;;;;;9.23;4.43;;;;;;;5.37;73.53;102187.34;4971343;28;20340;-74
2023/05/03 03:45:50;;;;;;;9.15;4.30;;;;;;;5.35;73.52;102192.00;4971241;28;20206;-73
2023/05/03 03:48:19;;;;;;;9.65;3.70;;;;;;;5.43;73.38;102186.78;4973378;28;20201;-73
2023/05/03 03:50:49;;;;;;;15.27;4.30;;;;;;;5.45;73.29;102188.34;4973321;28;20460;-73
2023/05/03 03:53:20;;;;;;;4.40;3.63;;;;;;;5.57;72.99;102197.13;4971753;28;20321;-74
2023/05/03 03:55:49;;;;;;;7.95;3.50;;;;;;;5.54;73.19;102200.94;4971790;28;20232;-73
2023/05/03 03:58:20;;;;;;;5.68;3.78;;;;;;;5.57;73.41;102202.50;4973078;28;20735;-72
2023/05/03 04:00:50;;;;;;;10.77;3.75;;;;;;;5.48;73.40;102201.50;4970783;28;20673;-73
2023/05/03 04:03:23;;;;;;;13.52;4.60;;;;;;;5.87;72.39;102206.97;4974799;28;20226;-72
2023/05/03 04:05:52;;;;;;;6.38;4.32;;;;;;;6.41;69.90;102201.88;4972972;28;20688;-74
2023/05/03 04:08:22;;;;;;;8.32;4.78;;;;;;;7.01;67.40;102199.75;4974084;28;20191;-72
2023/05/03 04:10:51;;;;;;;9.85;4.70;;;;;;;7.70;65.47;102210.00;4972929;28;20204;-73
2023/05/03 04:13:22;;;;;;;8.15;4.38;;;;;;;8.26;62.47;102210.59;4975879;28;20229;-73
2023/05/03 04:15:55;;;;;;;7.35;4.03;;;;;;;8.64;61.50;102219.38;4979793;28;20217;-75
2023/05/03 04:18:26;;;;;;;10.00;4.05;;;;;;;9.15;59.55;102219.34;4986998;28;20207;-74
2023/05/03 04:20:58;;;;;;;8.35;4.97;;;;;;;9.66;58.27;102217.53;4979276;28;20202;-74
2023/05/03 04:23:27;;;;;;;16.25;4.78;;;;;;;9.99;57.12;102223.88;4983878;28;20784;-74
2023/05/03 04:25:59;;;;;;;9.45;4.60;;;;;;;10.10;55.98;102223.56;4969637;28;20190;-73
2023/05/03 04:28:32;;;;;;;5.40;3.00;;;;;;;10.46;54.71;102226.81;4972872;28;20190;-73
2023/05/03 04:31:02;;;;;;;7.10;4.03;;;;;;;11.15;52.94;102234.34;4968939;28;20204;-73
2023/05/03 04:33:33;;;;;;;6.85;4.15;;;;;;;10.62;52.98;102234.94;4969418;28;20271;-74
2023/05/03 04:36:05;;;;;;;7.75;3.55;;;;;;;11.20;52.19;102239.25;4966923;28;20196;-73
2023/05/03 04:38:37;;;;;;;8.05;5.18;;;;;;;11.73;50.69;102244.00;4969698;28;20205;-73
2023/05/03 04:41:07;;;;;;;7.55;3.83;;;;;;;12.14;49.03;102248.19;4974078;28;20209;-73
2023/05/03 04:43:39;;;;;;;7.40;3.92;;;;;;;12.38;48.98;102249.88;4971924;28;20225;-71
2023/05/03 04:46:08;;;;;;;7.38;2.55;;;;;;;12.66;47.68;102243.88;4971113;28;20729;-72
2023/05/03 04:48:38;;;;;;;9.35;3.63;;;;;;;12.32;48.04;102242.44;4970271;28;20288;-72
2023/05/03 04:51:08;;;;;;;7.53;3.88;;;;;;;12.79;47.22;102254.94;4976194;28;20255;-72
2023/05/03 04:53:37;;;;;;;11.85;4.18;;;;;;;12.17;48.21;102261.38;4970712;28;20243;-72
2023/05/03 04:56:11;;;;;;;4.95;3.95;;;;;;;12.16;47.85;102250.69;4968599;28;20264;-73
2023/05/03 04:58:43;;;;;;;8.63;4.57;;;;;;;11.94;48.14;102254.22;4976542;28;20249;-73
2023/05/03 05:01:15;;;;;;;8.77;4.28;;;;;;;12.12;47.83;102246.66;4972538;28;20205;-73
2023/05/03 05:03:44;;;;;;;5.95;3.20;;;;;;;11.31;48.74;102255.16;4973993;28;20299;-73
2023/05/03 05:06:20;;;;;;;9.07;4.30;;;;;;;11.45;49.13;102251.72;4974073;28;20227;-73
2023/05/03 05:08:50;;;;;;;10.18;4.72;;;;;;;12.57;47.11;102254.81;4970678;28;20196;-74
2023/05/03 05:11:21;;;;;;;10.85;5.25;;;;;;;13.70;44.49;102246.50;4967539;28;20269;-72
2023/05/03 05:13:51;;;;;;;10.80;6.00;;;;;;;13.94;43.86;102255.16;4968925;28;20225;-71
2023/05/03 05:16:20;;;;;;;8.43;4.83;;;;;;;13.30;44.46;102254.13;4968322;28;20520;-71
2023/05/03 05:18:54;;;;;;;13.23;4.73;;;;;;;12.47;46.16;102259.63;4968392;28;20455;-74
2023/05/03 05:21:27;;;;;;;11.65;4.18;;;;;;;10.10;52.00;102252.47;4986901;28;20452;-73
2023/05/03 05:23:57;;;;;;;8.60;4.05;;;;;;;8.52;56.82;102263.81;4974822;28;20340;-74
2023/05/03 05:26:27;;;;;;;6.53;3.88;;;;;;;7.92;59.64;102260.81;4964708;28;20229;-73
2023/05/03 05:28:58;;;;;;;4.10;3.70;;;;;;;7.70;60.80;102261.22;4968589;28;20698;-72
2023/05/03 05:31:27;;;;;;;7.65;3.60;;;;;;;7.68;61.40;102263.22;4968546;28;20201;-73
2023/05/03 05:33:56;;;;;;;13.02;4.32;;;;;;;7.23;62.57;102268.53;4970370;28;20235;-74
2023/05/03 05:36:25;;;;;;;13.60;5.53;;;;;;;7.32;63.31;102268.50;4965300;28;20683;-73
2023/05/03 05:38:54;;;;;;;9.57;5.68;;;;;;;7.51;62.83;102277.47;4970477;28;20287;-74
2023/05/03 05:41:26;;;;;;;6.07;4.25;;;;;;;7.74;63.15;102276.97;4969455;28;20220;-71
2023/05/03 05:44:00;;;;;;;12.63;5.20;;;;;;;7.86;62.11;102280.28;4967059;28;20272;-72
2023/05/03 05:46:30;;;;;;;10.10;3.88;;;;;;;7.84;62.48;102285.00;4971031;28;20198;-74
2023/05/03 05:49:00;;;;;;;19.25;4.53;;;;;;;8.00;61.74;102290.53;4969517;28;20213;-74
2023/05/03 05:51:30;;;;;;;7.63;5.07;;;;;;;8.00;61.67;102289.69;4965316;28;20685;-74
2023/05/03 05:54:00;;;;;;;4.97;3.60;;;;;;;8.13;61.94;102285.63;4971912;28;20711;-76
2023/05/03 05:56:29;;;;;;;10.18;3.38;;;;;;;8.37;61.09;102289.63;4970882;28;20292;-75
2023/05/03 05:58:59;;;;;;;10.00;3.97;;;;;;;8.37;60.97;102292.31;4967958;28;20248;-72
2023/05/03 06:01:30;;;;;;;6.15;4.13;;;;;;;8.54;60.26;102294.16;4965869;28;20216;-73
2023/05/03 06:04:01;;;;;;;10.02;4.93;;;;;;;8.55;61.08;102290.47;4968863;28;20751;-71
2023/05/03 06:06:30;;;;;;;11.38;6.35;;;;;;;8.65;60.43;102291.22;4967495;28;20729;-73
2023/05/03 06:08:59;;;;;;;19.33;4.63;;;;;;;8.62;59.75;102291.53;4968927;28;20193;-73
2023/05/03 06:11:38;;;;;;;9.45;3.70;;;;;;;8.63;60.22;102298.63;4972044;28;20180;-73
2023/05/03 06:14:09;;;;;;;6.25;3.70;;;;;;;8.77;59.81;102308.00;4966265;28;20287;-73
2023/05/03 06:16:41;;;;;;;3.83;2.85;;;;;;;8.90;59.00;102300.38;4972813;28;20209;-71
2023/05/03 06:19:10;;;;;;;12.27;3.80;;;;;;;9.06;58.74;102306.72;4974211;28;20300;-73
2023/05/03 06:21:39;;;;;;;6.03;3.25;;;;;;;8.88;58.81;102307.78;4980544;28;20612;-73
2023/05/03 06:24:08;;;;;;;7.65;3.45;;;;;;;8.91;58.12;102297.50;4975605;28;20692;-72
2023/05/03 06:26:38;;;;;;;7.70;3.63;;;;;;;8.81;58.63;102307.53;4975925;28;20206;-74
2023/05/03 06:29:09;;;;;;;9.95;3.83;;;;;;;9.06;58.32;102301.31;4969200;28;20207;-73
2023/05/03 06:31:40;;;;;;;9.52;3.83;;;;;;;9.33;57.73;102302.19;4968310;28;20428;-74
2023/05/03 06:34:11;;;;;;;9.02;3.65;;;;;;;9.35;57.23;102300.16;4979459;28;20228;-70
2023/05/03 06:36:42;;;;;;;12.57;3.95;;;;;;;9.49;56.32;102307.66;4968306;28;20748;-74
2023/05/03 06:39:11;;;;;;;14.13;3.10;;;;;;;9.50;55.67;102303.94;4971014;28;20212;-73
2023/05/03 06:41:40;;;;;;;15.43;4.07;;;;;;;9.25;56.46;102296.72;4970061;28;20213;-73
2023/05/03 06:44:11;;;;;;;5.97;2.92;;;;;;;9.36;56.29;102302.69;4971872;28;20224;-73
2023/05/03 06:46:40;;;;;;;9.35;4.00;;;;;;;9.38;56.21;102294.44;4972106;28;20194;-74
2023/05/03 06:49:09;;;;;;;7.07;2.38;;;;;;;9.49;55.19;102294.16;4972755;28;20232;-74
2023/05/03 06:51:38;;;;;;;7.03;3.03;;;;;;;9.37;55.31;102295.44;4974329;28;20253;-74
2023/05/03 06:54:08;;;;;;;4.68;3.38;;;;;;;9.76;54.88;102296.66;4973215;28;20226;-72
2023/05/03 06:56:38;;;;;;;8.50;2.40;;;;;;;9.90;54.25;102298.72;4977814;28;20200;-75
2023/05/03 06:59:07;;;;;;;5.68;1.90;;;;;;;9.80;53.37;102294.47;4975828;28;20225;-74
2023/05/03 07:01:37;;;;;;;5.85;2.55;;;;;;;9.70;53.61;102291.91;4981419;28;20223;-73
2023/05/03 07:04:07;;;;;;;5.72;2.35;;;;;;;9.78;53.16;102307.31;4970336;28;20252;-75
2023/05/03 07:06:36;;;;;;;10.25;3.10;;;;;;;9.73;52.81;102302.38;4982699;28;20214;-74
2023/05/03 07:09:22;;;;;;;7.10;2.90;;;;;;;9.86;52.41;102299.22;4973618;28;20248;-73
2023/05/03 07:12:11;;;;;;;5.32;2.00;;;;;;;10.03;52.85;102296.41;4975986;28;20618;-74
2023/05/03 07:14:40;;;;;;;6.30;2.15;;;;;;;10.60;51.97;102299.22;4973797;28;20269;-74
2023/05/03 07:17:11;;;;;;;4.53;2.03;;;;;;;10.54;49.13;102307.19;4975040;28;20626;-72
2023/05/03 07:19:43;;;;;;;4.95;2.20;;;;;;;10.72;49.43;102310.59;4971637;28;20471;-75
2023/05/03 07:22:12;;;;;;;7.43;2.35;;;;;;;10.34;49.82;102303.94;4970998;28;20622;-72
2023/05/03 07:24:42;;;;;;;12.33;2.50;;;;;;;10.46;50.27;102297.19;4968668;28;20223;-75
2023/05/03 07:27:11;;;;;;;8.90;3.50;;;;;;;10.61;49.26;102303.63;4977852;28;20436;-72
2023/05/03 07:29:40;;;;;;;4.10;3.27;;;;;;;10.90;49.96;102311.25;4970318;28;20959;-71
2023/05/03 07:32:11;;;;;;;3.23;2.80;;;;;;;11.18;48.04;102309.03;4967438;28;20412;-73
2023/05/03 07:34:40;;;;;;;2.80;2.27;;;;;;;11.24;48.05;102308.34;4969189;28;20424;-73
2023/05/03 07:37:09;;;;;;;7.00;2.47;;;;;;;10.93;48.00;102307.38;4973547;28;20441;-74
2023/05/03 07:39:39;;;;;;;4.10;2.00;;;;;;;10.94;47.77;102306.38;4973868;28;20435;-71
2023/05/03 07:42:08;;;;;;;8.30;2.33;;;;;;;11.03;48.73;102299.91;4970999;28;20433;-72
2023/05/03 07:44:36;;;;;;;4.37;2.50;;;;;;;11.22;47.73;102299.56;4975173;28;20472;-73
2023/05/03 07:47:14;;;;;;;6.83;3.67;;;;;;;11.52;47.97;102306.09;4972505;28;20818;-76
2023/05/03 07:49:43;;;;;;;7.20;2.43;;;;;;;11.58;47.48;102298.09;4977152;28;20467;-74
2023/05/03 07:52:15;;;;;;;6.93;3.43;;;;;;;11.33;47.64;102304.59;4967141;28;20770;-73
2023/05/03 07:54:44;;;;;;;10.33;2.60;;;;;;;11.36;47.20;102309.69;4971459;28;20925;-72
2023/05/03 07:57:15;;;;;;;6.70;2.97;;;;;;;11.47;47.67;102305.75;4966142;28;20408;-73
2023/05/03 07:59:44;;;;;;;4.50;2.60;;;;;;;11.08;47.49;102300.25;4977103;28;20541;-71
2023/05/03 08:02:14;;;;;;;5.57;1.90;;;;;;;11.10;47.10;102296.34;4971985;28;20433;-73
2023/05/03 08:04:43;;;;;;;4.87;2.07;;;;;;;11.18;46.65;102303.63;4975177;28;20451;-72
2023/05/03 08:07:13;;;;;;;7.67;2.40;;;;;;;11.24;47.08;102292.94;4976153;28;20416;-73
2023/05/03 08:09:41;;;;;;;4.13;2.50;;;;;;;11.04;47.84;102288.88;4972907;28;20411;-73
2023/05/03 08:12:11;;;;;;;3.23;2.90;;;;;;;10.89;48.64;102293.34;4975411;28;20416;-75
2023/05/03 08:14:41;;;;;;;5.53;3.13;;;;;;;11.25;48.41;102293.78;4978883;28;20942;-73
2023/05/03 08:17:10;;;;;;;6.70;3.37;;;;;;;11.38;47.39;102287.81;4971823;28;20446;-73
2023/05/03 08:19:41;;;;;;;8.63;2.87;;;;;;;10.88;47.99;102289.78;4973092;28;20420;-72
2023/05/03 08:22:11;;;;;;;3.70;2.40;;;;;;;10.94;48.45;102284.69;4975476;28;20514;-74
2023/05/03 08:24:41;;;;;;;9.87;7.47;;;;;;;11.00;48.32;102286.69;4973063;28;20554;-74
2023/05/03 08:27:11;;;;;;;4.63;2.70;;;;;;;11.04;48.61;102288.88;4974094;28;20499;-73
2023/05/03 08:29:40;;;;;;;5.97;2.63;;;;;;;10.74;49.11;102293.16;4976000;28;21100;-73
2023/05/03 08:32:09;;;;;;;9.33;3.00;;;;;;;11.21;48.89;102293.28;4978603;28;20465;-73
2023/05/03 08:34:43;;;;;;;5.23;2.63;;;;;;;11.17;48.28;102288.38;4974732;28;20802;-72
2023/05/03 08:37:13;;;;;;;6.90;3.40;;;;;;;11.53;48.57;102286.91;4973874;28;20916;-72
2023/05/03 08:39:42;;;;;;;5.60;2.80;;;;;;;11.83;48.03;102295.31;4974149;28;20874;-70
2023/05/03 08:42:11;;;;;;;4.63;2.43;;;;;;;12.38;47.72;102287.88;4974378;28;20451;-74
2023/05/03 08:44:46;;;;;;;5.07;2.80;;;;;;;12.63;45.56;102291.25;4973490;28;20428;-74
2023/05/03 08:47:17;;;;;;;3.13;2.60;;;;;;;12.72;44.73;102294.75;4981808;28;20419;-73
2023/05/03 08:49:49;;;;;;;6.47;2.97;;;;;;;12.59;43.65;102295.34;4971914;28;20416;-72
2023/05/03 08:52:20;;;;;;;6.90;3.03;;;;;;;12.14;44.00;102301.59;4971130;28;20941;-72
2023/05/03 08:54:49;;;;;;;9.10;2.90;;;;;;;12.03;44.08;102302.00;4974462;28;20496;-72
2023/05/03 08:57:23;;;;;;;8.33;2.87;;;;;;;12.40;45.11;102302.09;4970740;28;20437;-73
2023/05/03 08:59:57;;;;;;;2.20;1.93;;;;;;;12.79;43.92;102306.56;4975893;28;20804;-75
2023/05/03 09:02:26;;;;;;;5.30;2.60;;;;;;;13.06;43.50;102297.84;4971188;28;20476;-74
2023/05/03 09:04:58;;;;;;;4.37;3.97;;;;;;;13.25;42.07;102302.78;4970696;28;20828;-72
2023/05/03 09:07:27;;;;;;;6.83;3.03;;;;;;;12.97;41.38;102294.31;4973569;28;20502;-73
2023/05/03 09:09:57;;;;;;;5.33;2.73;;;;;;;13.12;42.32;102290.84;4976561;28;20470;-74
2023/05/03 09:12:39;;;;;;;4.23;3.00;;;;;;;12.70;42.67;102310.38;4972390;28;20513;-75
2023/05/03 09:15:22;;;;;;;7.33;2.50;;;;;;;13.12;43.01;102301.72;4978261;28;20535;-73
2023/05/03 09:18:11;;;;;;;4.37;2.40;;;;;;;13.48;42.48;102305.41;4974548;28;20493;-71
2023/05/03 09:20:50;;;;;;;2.60;2.00;;;;;;;13.12;42.80;102301.72;4979323;28;20459;-72
2023/05/03 09:23:31;;;;;;;7.73;3.60;;;;;;;12.84;43.17;102304.13;4977835;28;20447;-74
2023/05/03 09:26:00;;;;;;;10.60;4.23;;;;;;;12.64;43.59;102299.19;4975306;28;20968;-73
2023/05/03 09:28:30;;;;;;;10.77;3.03;;;;;;;12.60;43.66;102303.31;4975671;28;20497;-74
2023/05/03 09:31:06;;;;;;;3.10;2.80;;;;;;;12.98;44.22;102300.63;4972072;28;20932;-71
2023/05/03 09:33:35;;;;;;;2.53;2.33;;;;;;;13.12;43.32;102301.72;4967251;28;20868;-71
2023/05/03 09:36:07;;;;;;;8.10;3.70;;;;;;;13.15;42.88;102299.47;4972902;28;20446;-73
2023/05/03 09:38:38;;;;;;;7.03;2.87;;;;;;;13.30;42.59;102300.34;4970739;28;20443;-74
2023/05/03 09:41:10;;;;;;;4.90;2.70;;;;;;;13.43;41.47;102299.69;4976588;28;21004;-71
2023/05/03 09:43:50;;;;;;;8.93;2.60;;;;;;;13.54;41.35;102298.38;4968811;28;20462;-72
2023/05/03 09:46:19;;;;;;;4.10;2.40;;;;;;;13.30;41.47;102294.91;4970100;28;20494;-72
2023/05/03 09:48:49;;;;;;;8.57;4.20;;;;;;;13.07;41.66;102299.50;4969853;28;20951;-73
2023/05/03 09:51:20;;;;;;;3.93;2.40;;;;;;;13.25;42.44;102297.34;4972341;28;20402;-71
2023/05/03 09:53:56;;;;;;;4.23;2.50;;;;;;;13.33;41.79;102297.25;4977183;28;20521;-72
2023/05/03 09:56:26;;;;;;;3.50;2.43;;;;;;;13.21;42.18;102296.03;4966469;28;20458;-73
2023/05/03 09:58:55;;;;;;;4.60;3.20;;;;;;;13.21;42.19;102293.31;4974915;28;20405;-71
2023/05/03 10:01:25;;;;;;;7.30;3.40;;;;;;;13.28;41.98;102293.38;4968230;28;20504;-70
2023/05/03 10:03:58;;;;;;;6.23;2.33;;;;;;;13.13;42.29;102293.38;4983855;28;20807;-73
2023/05/03 10:06:34;;;;;;;7.13;3.40;;;;;;;12.89;42.15;102296.28;4976077;28;20435;-73
2023/05/03 10:09:15;;;;;;;5.00;2.70;;;;;;;13.27;41.99;102287.09;4984112;28;20926;-73
2023/05/03 10:11:48;;;;;;;11.73;2.43;;;;;;;13.33;41.81;102289.09;4979340;28;20438;-72
2023/05/03 10:14:17;;;;;;;3.43;2.60;;;;;;;13.52;42.07;102289.56;4967392;28;20459;-72
2023/05/03 10:16:50;;;;;;;3.53;2.80;;;;;;;13.84;41.86;102281.00;4977452;28;20913;-73
2023/05/03 10:19:24;;;;;;;3.77;2.60;;;;;;;13.99;41.01;102279.06;4977347;28;20548;-73
2023/05/03 10:22:03;;;;;;;5.40;2.43;;;;;;;14.25;40.72;102284.84;4978795;28;20516;-72
2023/05/03 10:24:33;;;;;;;3.30;2.13;;;;;;;13.75;40.38;102287.56;4969461;28;20707;-72
2023/05/03 10:27:02;;;;;;;4.43;1.93;;;;;;;13.72;40.64;102282.50;4973688;28;20476;-73
2023/05/03 10:29:52;;;;;;;4.17;2.33;;;;;;;13.95;39.99;102285.94;4975748;28;20877;-74
2023/05/03 10:32:38;;;;;;;3.60;2.93;;;;;;;13.87;41.01;102291.50;4965598;28;20486;-74
2023/05/03 10:35:14;;;;;;;3.57;2.03;;;;;;;13.90;40.41;102286.50;4970597;28;20473;-72
2023/05/03 10:37:48;;;;;;;5.03;1.73;;;;;;;14.06;40.64;102277.28;4970706;28;20844;-73
2023/05/03 10:40:19;;;;;;;4.80;2.00;;;;;;;14.10;39.90;102286.75;4977396;28;20779;-73
2023/05/03 10:42:52;;;;;;;5.77;2.40;;;;;;;13.84;39.63;102286.44;4964686;28;20464;-73
2023/05/03 10:45:24;;;;;;;3.17;1.97;;;;;;;13.45;39.95;102276.72;4972929;28;20437;-72
2023/05/03 10:48:21;;;;;;;4.20;1.90;;;;;;;13.65;39.24;102276.97;4973766;28;20795;-72
2023/05/03 10:50:53;;;;;;;3.13;2.23;;;;;;;14.01;38.72;102279.75;4976143;28;20409;-73
2023/05/03 10:53:42;;;;;;;4.40;1.87;;;;;;;13.96;40.08;102267.75;4971142;28;20492;-73
2023/05/03 10:56:14;;;;;;;6.23;2.60;;;;;;;14.17;38.85;102265.91;4973893;28;20774;-73
2023/05/03 10:58:45;;;;;;;3.47;2.23;;;;;;;14.25;38.80;102273.09;4982861;28;20799;-72
2023/05/03 11:01:17;;;;;;;3.63;2.07;;;;;;;14.28;39.47;102273.53;4969026;28;20468;-72
2023/05/03 11:04:02;;;;;;;2.77;1.77;;;;;;;14.58;40.00;102263.41;4971452;28;20425;-71
2023/05/03 11:06:33;;;;;;;3.80;1.97;;;;;;;14.64;39.57;102256.34;4972044;28;20465;-72
2023/05/03 11:09:07;;;;;;;6.37;4.43;;;;;;;15.06;39.59;102255.41;4976158;28;20410;-72
2023/05/03 11:11:38;;;;;;;5.50;2.30;;;;;;;15.22;38.74;102263.28;4970354;28;20398;-73
2023/05/03 11:14:10;;;;;;;3.70;2.33;;;;;;;15.29;39.16;102255.16;4971676;28;20442;-71
2023/05/03 11:16:46;;;;;;;3.00;1.73;;;;;;;14.89;38.71;102254.88;4967693;28;20418;-73
2023/05/03 11:19:16;;;;;;;5.83;1.93;;;;;;;15.04;38.07;102263.81;4973027;28;20431;-72
2023/05/03 11:21:46;;;;;;;4.63;1.80;;;;;;;15.08;38.30;102258.78;4973152;28;20470;-69
2023/05/03 11:24:19;;;;;;;4.23;1.80;;;;;;;15.31;38.25;102253.06;4970407;28;20434;-73
2023/05/03 11:26:48;;;;;;;6.50;2.37;;;;;;;15.33;37.31;102251.84;4969760;28;20483;-71
2023/05/03 11:29:18;;;;;;;3.10;1.90;;;;;;;15.03;37.48;102244.91;4976631;28;20459;-72
2023/05/03 11:31:47;;;;;;;7.17;2.43;;;;;;;14.50;39.33;102249.94;4970110;28;20930;-70
2023/05/03 11:34:19;;;;;;;2.63;1.90;;;;;;;14.00;40.01;102247.25;4965606;28;20447;-72
2023/05/03 11:36:50;;;;;;;4.53;2.27;;;;;;;14.63;40.61;102243.75;4971832;28;20950;-71
2023/05/03 11:39:20;;;;;;;4.03;2.13;;;;;;;14.73;39.08;102249.72;4974434;28;20468;-73
2023/05/03 11:42:06;;;;;;;8.40;3.10;;;;;;;15.00;38.67;102238.00;4971675;28;20539;-72
2023/05/03 11:44:36;;;;;;;4.87;2.30;;;;;;;15.28;38.94;102237.97;4973311;28;20453;-73
2023/05/03 11:47:07;;;;;;;5.90;2.80;;;;;;;15.31;38.40;102231.25;4974962;28;20470;-71
2023/05/03 11:49:37;;;;;;;3.83;2.10;;;;;;;15.43;38.56;102229.66;4975844;28;20513;-73